createdAt,value
2018-12-09T00:00:16.182Z,79.08
2018-12-09T00:01:16.675Z,79.13
2018-12-09T00:02:16.085Z,79.26
2018-12-09T00:03:17.392Z,79.58
2018-12-09T00:04:17.755Z,80.09
2018-12-09T00:05:18.159Z,80.01
2018-12-09T00:06:18.544Z,80.28
2018-12-09T00:07:18.937Z,80.10
2018-12-09T00:08:19.252Z,80.48
2018-12-09T00:09:19.860Z,80.25
2018-12-09T00:10:20.221Z,80.64
2018-12-09T00:11:20.602Z,80.87
2018-12-09T00:12:20.919Z,80.74
2018-12-09T00:13:21.298Z,81.14
2018-12-09T00:14:21.630Z,81.47
2018-12-09T00:15:22.098Z,81.34
2018-12-09T00:16:22.494Z,80.99
2018-12-09T00:17:22.817Z,81.48
2018-12-09T00:18:23.137Z,81.40
2018-12-09T00:19:23.501Z,82.04
2018-12-09T00:20:24.167Z,81.85
2018-12-09T00:21:23.461Z,81.69
2018-12-09T00:22:25.019Z,81.72
2018-12-09T00:23:25.587Z,82.04
2018-12-09T00:24:25.960Z,81.94
2018-12-09T00:25:26.491Z,81.95
2018-12-09T00:26:26.957Z,81.67
2018-12-09T00:27:26.046Z,81.87
2018-12-09T00:28:27.344Z,81.58
2018-12-09T00:29:27.600Z,81.36
2018-12-09T00:30:27.944Z,81.39
2018-12-09T00:31:28.469Z,81.66
2018-12-09T00:31:36.517Z,81.74
2018-12-09T00:32:37.829Z,81.73
2018-12-09T00:33:38.363Z,82.17
2018-12-09T00:34:38.638Z,82.28
2018-12-09T00:35:39.048Z,82.18
2018-12-09T00:36:39.749Z,82.40
2018-12-09T00:37:40.033Z,82.57
2018-12-09T00:38:40.484Z,82.69
2018-12-09T00:39:41.220Z,82.77
2018-12-09T00:40:41.644Z,83.15
2018-12-09T00:41:42.059Z,83.73
2018-12-09T00:42:43.646Z,83.65
2018-12-09T00:43:42.001Z,83.79
2018-12-09T00:44:43.365Z,84.02
2018-12-09T00:45:42.514Z,83.95
2018-12-09T00:46:43.908Z,83.89
2018-12-09T00:47:44.281Z,84.28
2018-12-09T00:48:44.579Z,84.42
2018-12-09T00:49:44.978Z,84.33
2018-12-09T00:50:47.658Z,84.51
2018-12-09T00:51:47.916Z,84.49
2018-12-09T00:52:48.190Z,84.63
2018-12-09T00:53:48.394Z,84.33
2018-12-09T00:54:48.771Z,84.39
2018-12-09T00:55:49.103Z,84.27
2018-12-09T00:56:49.353Z,84.37
2018-12-09T00:57:49.672Z,84.58
2018-12-09T00:58:50.377Z,84.83
2018-12-09T00:59:50.643Z,84.98
2018-12-09T01:00:52.055Z,84.78
2018-12-09T01:01:51.682Z,85.31
2018-12-09T01:02:51.978Z,85.34
2018-12-09T01:03:52.259Z,85.25
2018-12-09T01:04:51.615Z,85.04
2018-12-09T01:05:53.294Z,84.82
2018-12-09T01:06:53.846Z,85.20
2018-12-09T01:07:54.152Z,85.31
2018-12-09T01:08:54.381Z,85.22
2018-12-09T01:09:54.631Z,85.36
2018-12-09T01:10:54.915Z,85.29
2018-12-09T01:11:55.314Z,85.57
2018-12-09T01:12:55.599Z,85.26
2018-12-09T01:13:55.883Z,85.27
2018-12-09T01:14:56.241Z,85.39
2018-12-09T01:15:56.729Z,85.25
2018-12-09T01:16:57.029Z,85.21
2018-12-09T01:17:06.072Z,85.02
2018-12-09T01:18:07.447Z,85.05
2018-12-09T01:19:07.715Z,85.02
2018-12-09T01:20:08.072Z,85.36
2018-12-09T01:21:08.050Z,85.64
2018-12-09T01:22:08.281Z,85.64
2018-12-09T01:23:08.555Z,85.71
2018-12-09T01:24:08.821Z,85.10
2018-12-09T01:25:09.182Z,85.15
2018-12-09T01:26:08.392Z,85.54
2018-12-09T01:27:09.729Z,85.06
2018-12-09T01:28:10.194Z,84.74
2018-12-09T01:29:10.532Z,84.78
2018-12-09T01:30:10.800Z,85.13
2018-12-09T01:31:11.560Z,85.60
2018-12-09T01:32:11.839Z,85.19
2018-12-09T01:33:12.172Z,85.22
2018-12-09T01:34:12.785Z,85.67
2018-12-09T01:35:13.078Z,85.44
2018-12-09T01:36:13.364Z,85.78
2018-12-09T01:37:12.437Z,85.59
2018-12-09T01:38:13.667Z,85.86
2018-12-09T01:39:14.124Z,85.86
2018-12-09T01:40:14.422Z,86.04
2018-12-09T01:41:14.974Z,85.91
2018-12-09T01:42:15.505Z,85.78
2018-12-09T01:43:15.849Z,85.81
2018-12-09T01:44:16.404Z,84.88
2018-12-09T01:45:16.761Z,85.04
2018-12-09T01:46:17.130Z,85.30
2018-12-09T01:47:16.223Z,85.33
2018-12-09T01:48:17.585Z,85.03
2018-12-09T01:49:17.959Z,85.03
2018-12-09T01:50:18.253Z,85.09
2018-12-09T01:51:18.707Z,84.89
2018-12-09T01:52:19.030Z,85.36
2018-12-09T01:53:19.540Z,85.22
2018-12-09T01:54:20.074Z,85.37
2018-12-09T01:55:19.262Z,85.61
2018-12-09T01:56:20.614Z,85.34
2018-12-09T01:57:21.438Z,85.14
2018-12-09T01:58:21.754Z,84.75
2018-12-09T01:59:22.147Z,84.60
2018-12-09T02:00:22.464Z,84.25
2018-12-09T02:01:23.045Z,84.12
2018-12-09T02:02:22.919Z,84.16
2018-12-09T02:03:24.786Z,83.72
2018-12-09T02:04:25.197Z,83.29
2018-12-09T02:05:25.565Z,83.25
2018-12-09T02:05:33.682Z,82.45
2018-12-09T02:06:34.918Z,82.40
2018-12-09T02:07:35.339Z,82.27
2018-12-09T02:08:36.148Z,81.56
2018-12-09T02:09:36.557Z,81.27
2018-12-09T02:10:35.854Z,80.96
2018-12-09T02:11:37.946Z,81.33
2018-12-09T02:12:37.504Z,81.04
2018-12-09T02:13:38.934Z,80.99
2018-12-09T02:14:38.175Z,80.43
2018-12-09T02:15:39.568Z,80.24
2018-12-09T02:16:40.256Z,80.31
2018-12-09T02:17:40.833Z,80.50
2018-12-09T02:18:41.149Z,80.61
2018-12-09T02:19:41.659Z,80.42
2018-12-09T02:20:42.116Z,80.25
2018-12-09T02:21:41.524Z,80.25
2018-12-09T02:22:43.211Z,80.17
2018-12-09T02:23:43.272Z,80.04
2018-12-09T02:24:43.683Z,80.01
2018-12-09T02:25:44.104Z,80.10
2018-12-09T02:26:44.531Z,80.18
2018-12-09T02:27:45.091Z,80.33
2018-12-09T02:28:45.523Z,80.46
2018-12-09T02:29:45.869Z,80.08
2018-12-09T02:30:46.370Z,80.13
2018-12-09T02:31:45.782Z,80.62
2018-12-09T02:32:47.402Z,80.34
2018-12-09T02:33:47.097Z,80.77
2018-12-09T02:34:48.352Z,80.87
2018-12-09T02:35:48.775Z,80.98
2018-12-09T02:36:49.337Z,80.81
2018-12-09T02:37:50.186Z,81.11
2018-12-09T02:38:50.770Z,81.44
2018-12-09T02:39:51.029Z,81.29
2018-12-09T02:40:51.344Z,81.04
2018-12-09T02:41:52.149Z,81.04
2018-12-09T02:42:51.548Z,81.03
2018-12-09T02:43:52.891Z,81.08
2018-12-09T02:44:53.176Z,81.49
2018-12-09T02:45:53.664Z,81.36
2018-12-09T02:46:54.119Z,81.54
2018-12-09T02:47:54.449Z,81.70
2018-12-09T02:48:54.896Z,81.69
2018-12-09T02:49:55.186Z,81.19
2018-12-09T02:50:55.919Z,81.08
2018-12-09T02:51:56.294Z,80.93
2018-12-09T02:52:55.679Z,80.99
2018-12-09T02:53:57.611Z,80.93
2018-12-09T02:54:58.138Z,80.86
2018-12-09T02:55:57.509Z,80.96
2018-12-09T02:56:58.798Z,81.25
2018-12-09T02:57:08.553Z,81.23
2018-12-09T02:58:10.005Z,81.25
2018-12-09T02:59:10.725Z,81.16
2018-12-09T03:00:11.144Z,81.39
2018-12-09T03:01:12.079Z,81.01
2018-12-09T03:02:12.691Z,81.30
2018-12-09T03:03:12.738Z,80.93
2018-12-09T03:04:13.054Z,81.39
2018-12-09T03:05:12.434Z,81.48
2018-12-09T03:06:13.812Z,81.96
2018-12-09T03:07:14.059Z,82.12
2018-12-09T03:08:14.344Z,82.23
2018-12-09T03:09:14.585Z,82.42
2018-12-09T03:10:14.923Z,83.16
2018-12-09T03:11:15.321Z,83.52
2018-12-09T03:12:16.136Z,83.88
2018-12-09T03:13:16.731Z,84.21
2018-12-09T03:14:17.107Z,84.68
2018-12-09T03:15:17.500Z,84.35
2018-12-09T03:16:16.828Z,84.91
2018-12-09T03:17:18.170Z,84.95
2018-12-09T03:18:18.549Z,85.05
2018-12-09T03:19:18.834Z,84.97
2018-12-09T03:20:19.131Z,84.66
2018-12-09T03:21:19.542Z,84.33
2018-12-09T03:22:19.864Z,83.83
2018-12-09T03:23:20.146Z,83.64
2018-12-09T03:24:20.690Z,83.77
2018-12-09T03:25:21.213Z,83.59
2018-12-09T03:26:20.599Z,83.73
2018-12-09T03:27:21.931Z,83.71
2018-12-09T03:28:22.203Z,84.23
2018-12-09T03:29:22.521Z,84.21
2018-12-09T03:30:22.991Z,84.25
2018-12-09T03:31:23.519Z,84.22
2018-12-09T03:32:22.730Z,84.23
2018-12-09T03:33:24.273Z,84.37
2018-12-09T03:34:24.669Z,84.47
2018-12-09T03:35:24.971Z,84.65
2018-12-09T03:36:24.713Z,84.52
2018-12-09T03:37:24.791Z,84.86
2018-12-09T03:38:26.346Z,85.02
2018-12-09T03:39:26.941Z,85.19
2018-12-09T03:40:27.589Z,85.64
2018-12-09T03:41:28.050Z,86.00
2018-12-09T03:42:28.325Z,86.22
2018-12-09T03:43:28.643Z,86.54
2018-12-09T03:44:28.922Z,86.97
2018-12-09T03:45:29.703Z,87.00
2018-12-09T03:46:29.003Z,87.47
2018-12-09T03:46:37.034Z,87.42
2018-12-09T03:47:37.651Z,87.43
2018-12-09T03:48:39.006Z,87.35
2018-12-09T03:49:39.389Z,87.41
2018-12-09T03:50:39.844Z,87.64
2018-12-09T03:51:40.391Z,87.85
2018-12-09T03:52:40.690Z,88.34
2018-12-09T03:53:40.902Z,88.61
2018-12-09T03:54:41.264Z,88.96
2018-12-09T03:55:42.771Z,88.74
2018-12-09T03:56:42.164Z,88.84
2018-12-09T03:57:41.513Z,88.95
2018-12-09T03:58:42.763Z,89.08
2018-12-09T03:59:43.097Z,89.51
2018-12-09T04:00:43.489Z,89.18
2018-12-09T04:01:43.868Z,89.03
2018-12-09T04:02:44.372Z,88.94
2018-12-09T04:03:44.698Z,88.80
2018-12-09T04:04:45.203Z,88.83
2018-12-09T04:05:45.658Z,89.08
2018-12-09T04:06:46.039Z,88.80
2018-12-09T04:07:45.387Z,88.27
2018-12-09T04:08:46.492Z,88.25
2018-12-09T04:09:46.806Z,88.06
2018-12-09T04:10:47.110Z,87.92
2018-12-09T04:11:47.589Z,87.21
2018-12-09T04:12:47.935Z,87.20
2018-12-09T04:13:50.824Z,86.66
2018-12-09T04:14:47.987Z,85.91
2018-12-09T04:15:49.555Z,85.57
2018-12-09T04:16:50.061Z,85.09
2018-12-09T04:17:49.408Z,84.39
2018-12-09T04:18:50.899Z,84.55
2018-12-09T04:19:51.274Z,84.25
2018-12-09T04:20:51.668Z,84.14
2018-12-09T04:21:52.053Z,84.04
2018-12-09T04:22:52.306Z,84.04
2018-12-09T04:23:52.719Z,84.06
2018-12-09T04:24:53.178Z,84.33
2018-12-09T04:25:53.558Z,84.46
2018-12-09T04:26:54.100Z,84.96
2018-12-09T04:27:53.700Z,84.41
2018-12-09T04:28:55.006Z,84.54
2018-12-09T04:29:55.402Z,84.93
2018-12-09T04:30:55.834Z,84.87
2018-12-09T04:31:56.229Z,85.15
2018-12-09T04:32:56.499Z,85.04
2018-12-09T04:33:56.722Z,85.04
2018-12-09T04:34:57.057Z,85.00
2018-12-09T04:35:57.807Z,84.80
2018-12-09T04:36:06.827Z,85.38
2018-12-09T04:37:07.143Z,85.38
2018-12-09T04:38:07.595Z,84.77
2018-12-09T04:39:08.255Z,85.20
2018-12-09T04:40:08.727Z,86.00
2018-12-09T04:41:08.023Z,85.44
2018-12-09T04:42:09.595Z,85.76
2018-12-09T04:43:09.953Z,86.28
2018-12-09T04:44:10.446Z,86.03
2018-12-09T04:45:10.348Z,85.82
2018-12-09T04:46:10.736Z,86.08
2018-12-09T04:47:12.085Z,85.39
2018-12-09T04:48:12.421Z,85.74
2018-12-09T04:49:12.758Z,85.43
2018-12-09T04:50:12.166Z,84.87
2018-12-09T04:51:13.825Z,85.25
2018-12-09T04:52:14.249Z,85.11
2018-12-09T04:53:14.627Z,85.20
2018-12-09T04:54:14.905Z,85.07
2018-12-09T04:55:15.489Z,85.30
2018-12-09T04:56:15.819Z,85.12
2018-12-09T04:57:16.028Z,85.53
2018-12-09T04:58:16.365Z,85.34
2018-12-09T04:59:16.611Z,85.78
2018-12-09T05:00:15.922Z,85.99
2018-12-09T05:01:17.293Z,85.52
2018-12-09T05:02:17.740Z,85.41
2018-12-09T05:03:18.152Z,85.44
2018-12-09T05:04:18.398Z,85.45
2018-12-09T05:05:18.689Z,85.41
2018-12-09T05:06:19.026Z,85.46
2018-12-09T05:07:19.391Z,85.29
2018-12-09T05:08:19.669Z,85.09
2018-12-09T05:09:19.973Z,85.28
2018-12-09T05:10:19.310Z,85.36
2018-12-09T05:11:20.816Z,85.33
2018-12-09T05:12:21.191Z,85.38
2018-12-09T05:13:21.628Z,85.04
2018-12-09T05:14:21.952Z,85.33
2018-12-09T05:15:22.183Z,85.30
2018-12-09T05:16:22.448Z,85.31
2018-12-09T05:17:22.847Z,85.59
2018-12-09T05:18:23.167Z,85.32
2018-12-09T05:19:23.992Z,85.78
2018-12-09T05:20:23.248Z,85.93
2018-12-09T05:21:24.573Z,86.47
2018-12-09T05:22:24.889Z,85.85
2018-12-09T05:23:25.097Z,86.26
2018-12-09T05:24:25.603Z,86.36
2018-12-09T05:25:26.006Z,86.61
2018-12-09T05:26:26.404Z,86.75
2018-12-09T05:27:26.831Z,86.69
2018-12-09T05:27:35.685Z,87.06
2018-12-09T05:28:36.087Z,87.10
2018-12-09T05:29:36.631Z,87.06
2018-12-09T05:30:36.907Z,87.31
2018-12-09T05:31:36.506Z,87.67
2018-12-09T05:32:38.002Z,87.82
2018-12-09T05:33:38.896Z,87.91
2018-12-09T05:34:39.439Z,88.59
2018-12-09T05:35:40.294Z,87.89
2018-12-09T05:36:40.751Z,88.17
2018-12-09T05:37:41.094Z,88.06
2018-12-09T05:38:41.458Z,88.59
2018-12-09T05:39:41.886Z,88.46
2018-12-09T05:40:42.304Z,88.93
2018-12-09T05:41:41.666Z,89.09
2018-12-09T05:42:43.343Z,89.53
2018-12-09T05:43:43.841Z,89.37
2018-12-09T05:44:44.658Z,89.51
2018-12-09T05:45:45.117Z,89.27
2018-12-09T05:46:45.146Z,89.50
2018-12-09T05:47:46.094Z,89.82
2018-12-09T05:48:46.367Z,89.67
2018-12-09T05:49:46.631Z,89.59
2018-12-09T05:50:47.050Z,89.95
2018-12-09T05:51:46.360Z,90.40
2018-12-09T05:52:47.696Z,89.92
2018-12-09T05:53:48.270Z,90.05
2018-12-09T05:54:48.672Z,89.91
2018-12-09T05:55:49.081Z,89.56
2018-12-09T05:56:49.723Z,89.60
2018-12-09T05:57:50.172Z,89.61
2018-12-09T05:58:50.771Z,89.38
2018-12-09T05:59:51.113Z,89.43
2018-12-09T06:00:51.640Z,89.18
2018-12-09T06:01:51.013Z,88.62
2018-12-09T06:02:52.600Z,88.87
2018-12-09T06:03:53.025Z,89.04
2018-12-09T06:04:53.397Z,88.45
2018-12-09T06:05:53.821Z,88.52
2018-12-09T06:06:54.186Z,88.40
2018-12-09T06:07:54.978Z,88.60
2018-12-09T06:08:55.308Z,88.34
2018-12-09T06:09:55.712Z,88.57
2018-12-09T06:10:56.211Z,88.32
2018-12-09T06:11:55.492Z,88.46
2018-12-09T06:12:56.895Z,88.11
2018-12-09T06:13:57.224Z,88.08
2018-12-09T06:14:57.541Z,88.18
2018-12-09T06:15:57.937Z,88.32
2018-12-09T06:16:05.971Z,87.91
2018-12-09T06:17:07.367Z,87.90
2018-12-09T06:18:07.763Z,87.59
2018-12-09T06:19:08.089Z,88.08
2018-12-09T06:20:08.352Z,87.50
2018-12-09T06:21:08.668Z,87.19
2018-12-09T06:22:09.028Z,87.08
2018-12-09T06:23:08.430Z,86.52
2018-12-09T06:24:09.827Z,86.38
2018-12-09T06:25:09.085Z,86.41
2018-12-09T06:26:10.523Z,85.71
2018-12-09T06:27:10.843Z,85.76
2018-12-09T06:28:11.853Z,86.13
2018-12-09T06:29:12.147Z,86.19
2018-12-09T06:30:12.493Z,85.96
2018-12-09T06:31:13.128Z,85.58
2018-12-09T06:32:13.389Z,85.37
2018-12-09T06:33:12.871Z,85.61
2018-12-09T06:34:14.249Z,85.50
2018-12-09T06:35:14.948Z,85.23
2018-12-09T06:36:14.881Z,85.16
2018-12-09T06:37:16.195Z,84.89
2018-12-09T06:38:16.559Z,84.85
2018-12-09T06:39:17.235Z,84.56
2018-12-09T06:40:17.607Z,84.53
2018-12-09T06:41:18.055Z,84.38
2018-12-09T06:42:18.422Z,84.55
2018-12-09T06:43:17.672Z,84.20
2018-12-09T06:44:18.801Z,84.10
2018-12-09T06:45:19.153Z,84.20
2018-12-09T06:46:19.559Z,84.31
2018-12-09T06:47:20.174Z,84.45
2018-12-09T06:48:20.515Z,84.70
2018-12-09T06:49:20.927Z,85.11
2018-12-09T06:50:21.250Z,85.09
2018-12-09T06:51:22.104Z,85.14
2018-12-09T06:52:21.578Z,85.67
2018-12-09T06:53:22.930Z,85.60
2018-12-09T06:54:23.272Z,85.91
2018-12-09T06:55:23.785Z,86.12
2018-12-09T06:56:24.101Z,86.34
2018-12-09T06:57:24.462Z,86.10
2018-12-09T06:58:24.908Z,85.78
2018-12-09T06:59:25.214Z,85.88
2018-12-09T07:00:25.538Z,86.07
2018-12-09T07:01:25.956Z,86.07
2018-12-09T07:02:26.298Z,86.03
2018-12-09T07:03:26.626Z,86.39
2018-12-09T07:04:27.005Z,86.42
2018-12-09T07:05:27.597Z,86.19
2018-12-09T07:05:36.454Z,86.38
2018-12-09T07:06:37.827Z,86.42
2018-12-09T07:07:38.179Z,86.36
2018-12-09T07:08:38.498Z,86.38
2018-12-09T07:09:38.948Z,86.61
2018-12-09T07:10:39.227Z,86.64
2018-12-09T07:11:39.620Z,86.89
2018-12-09T07:12:38.934Z,86.83
2018-12-09T07:13:40.556Z,86.47
2018-12-09T07:14:41.018Z,86.53
2018-12-09T07:15:41.542Z,86.05
2018-12-09T07:16:41.799Z,85.74
2018-12-09T07:17:42.042Z,85.73
2018-12-09T07:18:42.894Z,84.71
2018-12-09T07:19:43.249Z,83.76
2018-12-09T07:20:43.559Z,83.94
2018-12-09T07:21:44.045Z,83.79
2018-12-09T07:22:43.442Z,83.31
2018-12-09T07:23:44.802Z,82.15
2018-12-09T07:24:45.166Z,82.67
2018-12-09T07:25:45.435Z,82.02
2018-12-09T07:26:45.752Z,82.62
2018-12-09T07:27:46.027Z,81.51
2018-12-09T07:28:46.362Z,81.29
2018-12-09T07:29:46.623Z,81.02
2018-12-09T07:30:47.008Z,80.78
2018-12-09T07:31:47.465Z,80.96
2018-12-09T07:32:46.719Z,80.81
2018-12-09T07:33:48.278Z,80.75
2018-12-09T07:34:48.635Z,80.99
2018-12-09T07:35:49.073Z,81.22
2018-12-09T07:36:49.366Z,81.36
2018-12-09T07:37:49.645Z,80.78
2018-12-09T07:38:50.123Z,81.00
2018-12-09T07:39:50.952Z,81.19
2018-12-09T07:40:51.304Z,81.31
2018-12-09T07:41:51.135Z,81.39
2018-12-09T07:42:52.441Z,81.10
2018-12-09T07:43:52.756Z,81.05
2018-12-09T07:44:53.026Z,81.31
2018-12-09T07:45:53.644Z,81.29
2018-12-09T07:46:54.004Z,81.61
2018-12-09T07:47:54.255Z,81.78
2018-12-09T07:48:54.569Z,81.84
2018-12-09T07:49:54.852Z,81.74
2018-12-09T07:50:55.179Z,81.77
2018-12-09T07:51:54.462Z,81.58
2018-12-09T07:52:56.059Z,81.61
2018-12-09T07:53:56.428Z,81.64
2018-12-09T07:54:04.764Z,81.85
2018-12-09T07:55:06.037Z,81.88
2018-12-09T07:56:06.394Z,81.75
2018-12-09T07:57:06.730Z,82.02
2018-12-09T07:58:07.028Z,81.93
2018-12-09T07:59:07.277Z,81.87
2018-12-09T08:00:07.607Z,82.37
2018-12-09T08:01:07.933Z,83.58
2018-12-09T08:02:08.337Z,83.37
2018-12-09T08:03:08.738Z,83.97
2018-12-09T08:04:09.106Z,84.45
2018-12-09T08:05:09.527Z,84.73
2018-12-09T08:06:10.013Z,84.42
2018-12-09T08:07:14.208Z,84.19
2018-12-09T08:08:10.662Z,84.69
2018-12-09T08:09:10.997Z,84.76
2018-12-09T08:10:10.235Z,84.35
2018-12-09T08:11:11.613Z,84.27
2018-12-09T08:12:12.032Z,84.85
2018-12-09T08:13:12.403Z,85.02
2018-12-09T08:14:12.805Z,85.37
2018-12-09T08:15:13.285Z,85.24
2018-12-09T08:16:13.673Z,85.69
2018-12-09T08:17:14.298Z,85.68
2018-12-09T08:18:14.675Z,85.60
2018-12-09T08:19:15.314Z,85.69
2018-12-09T08:20:15.609Z,85.82
2018-12-09T08:21:15.139Z,85.52
2018-12-09T08:22:16.667Z,85.67
2018-12-09T08:23:17.025Z,86.14
2018-12-09T08:24:17.371Z,86.44
2018-12-09T08:25:17.677Z,86.43
2018-12-09T08:26:18.212Z,86.71
2018-12-09T08:27:18.907Z,87.33
2018-12-09T08:28:19.495Z,87.24
2018-12-09T08:29:20.058Z,86.70
2018-12-09T08:30:20.455Z,88.01
2018-12-09T08:31:20.773Z,87.81
2018-12-09T08:32:21.163Z,88.25
2018-12-09T08:33:21.672Z,89.13
2018-12-09T08:34:22.106Z,89.57
2018-12-09T08:35:22.463Z,89.96
2018-12-09T08:36:22.842Z,91.50
2018-12-09T08:37:23.237Z,92.04
2018-12-09T08:38:23.590Z,91.53
2018-12-09T08:39:24.089Z,92.29
2018-12-09T08:40:24.535Z,93.65
2018-12-09T08:40:33.474Z,93.21
2018-12-09T08:41:33.754Z,93.03
2018-12-09T08:42:34.008Z,92.78
2018-12-09T08:43:34.353Z,92.83
2018-12-09T08:44:34.695Z,92.90
2018-12-09T08:45:35.232Z,92.07
2018-12-09T08:46:35.356Z,91.17
2018-12-09T08:47:35.670Z,91.21
2018-12-09T08:48:35.916Z,91.66
2018-12-09T08:49:36.329Z,91.17
2018-12-09T08:50:36.611Z,92.33
2018-12-09T08:51:37.028Z,92.35
2018-12-09T08:52:37.306Z,91.82
2018-12-09T08:53:37.671Z,92.13
2018-12-09T08:54:38.311Z,91.59
2018-12-09T08:55:38.639Z,91.36
2018-12-09T08:56:39.108Z,91.82
2018-12-09T08:57:39.429Z,92.08
2018-12-09T08:58:38.614Z,91.34
2018-12-09T08:59:40.182Z,91.26
2018-12-09T09:00:40.720Z,91.57
2018-12-09T09:01:41.678Z,91.19
2018-12-09T09:02:42.175Z,91.24
2018-12-09T09:03:42.576Z,91.46
2018-12-09T09:04:42.835Z,91.63
2018-12-09T09:05:43.262Z,92.31
2018-12-09T09:06:43.618Z,92.29
2018-12-09T09:07:43.907Z,92.73
2018-12-09T09:08:44.191Z,91.56
2018-12-09T09:09:44.493Z,91.79
2018-12-09T09:10:44.808Z,92.22
2018-12-09T09:11:45.136Z,91.94
2018-12-09T09:12:45.473Z,91.63
2018-12-09T09:13:45.792Z,92.43
2018-12-09T09:14:46.095Z,91.57
2018-12-09T09:15:46.428Z,91.57
2018-12-09T09:16:46.783Z,91.60
2018-12-09T09:17:47.187Z,92.04
2018-12-09T09:18:47.477Z,91.66
2018-12-09T09:19:47.808Z,92.19
2018-12-09T09:20:48.149Z,92.20
2018-12-09T09:21:48.536Z,92.47
2018-12-09T09:22:48.935Z,92.63
2018-12-09T09:23:48.209Z,93.01
2018-12-09T09:24:49.606Z,92.12
2018-12-09T09:25:50.103Z,92.03
2018-12-09T09:26:50.677Z,92.35
2018-12-09T09:27:01.830Z,91.81
2018-12-09T09:28:01.816Z,91.84
2018-12-09T09:29:03.161Z,91.36
2018-12-09T09:30:03.482Z,91.76
2018-12-09T09:31:03.792Z,92.39
2018-12-09T09:32:04.116Z,91.48
2018-12-09T09:33:04.420Z,91.81
2018-12-09T09:34:04.796Z,91.26
2018-12-09T09:35:05.308Z,91.11
2018-12-09T09:36:05.891Z,90.37
2018-12-09T09:37:05.211Z,91.51
2018-12-09T09:38:06.583Z,90.99
2018-12-09T09:39:06.895Z,91.57
2018-12-09T09:40:07.223Z,91.95
2018-12-09T09:41:08.068Z,91.64
2018-12-09T09:42:08.454Z,90.84
2018-12-09T09:43:09.002Z,91.16
2018-12-09T09:44:09.305Z,91.32
2018-12-09T09:45:09.780Z,91.11
2018-12-09T09:46:10.494Z,91.97
2018-12-09T09:47:10.863Z,91.15
2018-12-09T09:48:11.320Z,91.31
2018-12-09T09:49:11.647Z,91.47
2018-12-09T09:50:12.378Z,92.07
2018-12-09T09:51:11.683Z,92.29
2018-12-09T09:52:13.026Z,91.15
2018-12-09T09:53:14.026Z,90.96
2018-12-09T09:54:14.403Z,91.16
2018-12-09T09:55:14.803Z,91.57
2018-12-09T09:56:15.227Z,91.43
2018-12-09T09:57:15.350Z,92.08
2018-12-09T09:58:15.871Z,91.56
2018-12-09T09:59:16.416Z,91.92
2018-12-09T10:00:16.745Z,91.61
2018-12-09T10:01:17.101Z,92.14
2018-12-09T10:02:17.386Z,92.11
2018-12-09T10:03:25.713Z,91.92
2018-12-09T10:04:17.235Z,91.83
2018-12-09T10:05:18.514Z,92.07
2018-12-09T10:06:19.113Z,90.90
2018-12-09T10:07:19.494Z,91.14
2018-12-09T10:08:19.879Z,91.26
2018-12-09T10:09:20.387Z,91.13
2018-12-09T10:10:20.735Z,91.93
2018-12-09T10:11:21.109Z,92.03
2018-12-09T10:12:21.478Z,92.38
2018-12-09T10:13:21.801Z,92.25
2018-12-09T10:14:22.200Z,92.36
2018-12-09T10:15:22.495Z,92.88
2018-12-09T10:15:33.859Z,93.11
2018-12-09T10:16:34.547Z,93.20
2018-12-09T10:17:34.943Z,92.62
2018-12-09T10:18:35.319Z,93.23
2018-12-09T10:19:35.876Z,92.81
2018-12-09T10:20:36.379Z,93.00
2018-12-09T10:21:36.701Z,93.41
2018-12-09T10:22:36.986Z,93.97
2018-12-09T10:23:37.358Z,94.09
2018-12-09T10:24:38.102Z,93.37
2018-12-09T10:25:38.379Z,94.84
2018-12-09T10:26:38.768Z,94.32
2018-12-09T10:27:39.164Z,94.10
2018-12-09T10:28:39.637Z,94.18
2018-12-09T10:29:39.938Z,93.96
2018-12-09T10:30:40.225Z,93.88
2018-12-09T10:31:40.679Z,94.28
2018-12-09T10:32:41.036Z,93.64
2018-12-09T10:33:41.480Z,93.82
2018-12-09T10:34:41.840Z,93.29
2018-12-09T10:35:42.373Z,93.73
2018-12-09T10:36:42.825Z,92.80
2018-12-09T10:37:43.293Z,92.77
2018-12-09T10:38:43.659Z,93.13
2018-12-09T10:39:45.033Z,93.18
2018-12-09T10:40:43.678Z,93.84
2018-12-09T10:41:45.163Z,92.49
2018-12-09T10:42:45.588Z,93.48
2018-12-09T10:43:46.480Z,93.98
2018-12-09T10:44:46.795Z,93.29
2018-12-09T10:45:47.107Z,94.13
2018-12-09T10:46:47.402Z,93.89
2018-12-09T10:47:47.787Z,94.01
2018-12-09T10:48:47.979Z,94.20
2018-12-09T10:49:48.371Z,94.76
2018-12-09T10:50:48.635Z,95.29
2018-12-09T10:51:48.897Z,95.28
2018-12-09T10:52:49.177Z,95.01
2018-12-09T10:53:49.589Z,95.79
2018-12-09T10:54:50.063Z,95.42
2018-12-09T10:55:50.547Z,95.83
2018-12-09T10:56:51.161Z,96.11
2018-12-09T10:57:51.653Z,96.17
2018-12-09T10:58:51.962Z,96.75
2018-12-09T10:59:52.405Z,96.58
2018-12-09T11:00:52.715Z,96.75
2018-12-09T11:01:53.246Z,97.21
2018-12-09T11:02:01.638Z,97.08
2018-12-09T11:03:02.952Z,97.06
2018-12-09T11:04:03.314Z,96.89
2018-12-09T11:05:03.764Z,97.33
2018-12-09T11:06:04.141Z,96.79
2018-12-09T11:07:04.508Z,96.29
2018-12-09T11:08:04.861Z,97.29
2018-12-09T11:09:05.372Z,97.12
2018-12-09T11:10:05.815Z,97.78
2018-12-09T11:11:06.339Z,98.46
2018-12-09T11:12:06.958Z,98.12
2018-12-09T11:13:07.351Z,98.21
2018-12-09T11:14:07.801Z,97.88
2018-12-09T11:15:08.152Z,98.29
2018-12-09T11:16:08.470Z,98.62
2018-12-09T11:17:08.785Z,99.23
2018-12-09T11:18:09.297Z,98.45
2018-12-09T11:19:09.889Z,98.47
2018-12-09T11:20:10.284Z,98.73
2018-12-09T11:21:10.591Z,98.80
2018-12-09T11:22:10.962Z,99.46
2018-12-09T11:23:11.278Z,99.28
2018-12-09T11:24:11.643Z,99.37
2018-12-09T11:25:11.979Z,99.57
2018-12-09T11:26:12.309Z,99.40
2018-12-09T11:27:12.652Z,99.52
2018-12-09T11:28:13.044Z,99.60
2018-12-09T11:29:13.393Z,99.92
2018-12-09T11:30:13.871Z,99.58
2018-12-09T11:31:14.284Z,99.89
2018-12-09T11:32:14.670Z,99.99
2018-12-09T11:33:15.020Z,99.84
2018-12-09T11:34:15.342Z,99.73
2018-12-09T11:35:15.375Z,99.84
2018-12-09T11:36:15.757Z,100.03
2018-12-09T11:37:16.043Z,100.12
2018-12-09T11:38:16.325Z,100.12
2018-12-09T11:39:16.671Z,100.05
2018-12-09T11:40:16.952Z,100.21
2018-12-09T11:41:17.262Z,100.55
2018-12-09T11:42:17.698Z,100.61
2018-12-09T11:43:18.401Z,100.71
2018-12-09T11:44:18.640Z,100.49
2018-12-09T11:45:19.077Z,100.76
2018-12-09T11:46:19.411Z,99.84
2018-12-09T11:47:19.700Z,99.72
2018-12-09T11:47:29.673Z,98.72
2018-12-09T11:48:30.937Z,98.77
2018-12-09T11:49:31.347Z,98.88
2018-12-09T11:50:31.607Z,97.58
2018-12-09T11:51:32.027Z,97.38
2018-12-09T11:52:32.309Z,97.09
2018-12-09T11:53:32.584Z,96.59
2018-12-09T11:54:32.849Z,96.83
2018-12-09T11:55:33.174Z,96.41
2018-12-09T11:56:33.707Z,95.93
2018-12-09T11:57:34.176Z,95.29
2018-12-09T11:58:34.629Z,95.95
2018-12-09T11:59:34.921Z,95.29
2018-12-09T12:00:35.189Z,95.84
2018-12-09T12:01:35.535Z,96.41
2018-12-09T12:02:35.824Z,96.37
2018-12-09T12:03:36.304Z,96.14
2018-12-09T12:04:36.605Z,96.33
2018-12-09T12:05:37.050Z,95.63
2018-12-09T12:06:37.437Z,95.50
2018-12-09T12:07:37.747Z,95.43
2018-12-09T12:08:38.057Z,94.98
2018-12-09T12:09:38.926Z,95.38
2018-12-09T12:10:39.352Z,95.90
2018-12-09T12:11:39.748Z,96.58
2018-12-09T12:12:40.077Z,97.41
2018-12-09T12:13:40.397Z,97.78
2018-12-09T12:14:40.719Z,97.59
2018-12-09T12:15:41.216Z,97.47
2018-12-09T12:16:41.800Z,97.93
2018-12-09T12:17:42.096Z,97.90
2018-12-09T12:18:42.468Z,97.37
2018-12-09T12:19:42.810Z,97.74
2018-12-09T12:20:43.064Z,97.80
2018-12-09T12:21:43.428Z,97.04
2018-12-09T12:22:43.757Z,97.15
2018-12-09T12:23:44.070Z,96.59
2018-12-09T12:24:44.402Z,94.58
2018-12-09T12:25:44.416Z,93.48
2018-12-09T12:26:44.731Z,92.84
2018-12-09T12:27:45.128Z,94.20
2018-12-09T12:28:45.582Z,94.00
2018-12-09T12:29:45.934Z,94.74
2018-12-09T12:30:46.257Z,92.59
2018-12-09T12:31:46.611Z,92.02
2018-12-09T12:31:54.674Z,92.31
2018-12-09T12:32:56.057Z,92.33
2018-12-09T12:33:56.340Z,93.40
2018-12-09T12:34:56.958Z,93.16
2018-12-09T12:35:57.241Z,93.19
2018-12-09T12:36:57.633Z,94.00
2018-12-09T12:37:58.359Z,94.47
2018-12-09T12:38:58.821Z,94.75
2018-12-09T12:39:59.289Z,95.41
2018-12-09T12:40:59.831Z,94.87
2018-12-09T12:42:00.291Z,95.49
2018-12-09T12:43:00.738Z,96.29
2018-12-09T12:44:01.173Z,95.59